Aeroporto :
LOGIN :

Iscrizione | Disclaimer

   EN    FR    IT 

 










Sommario :    VFR   VFR Marginale   IFR   IFR Intensivo   IFR Molto Intensivo
Visibilità : 
Base nubi : 
>= 8 km
>= 3000ft
5 / 8 km
1000 / 3000 ft
1500m / 5 km
500 / 1000 ft
800 / 1500m
200 / 500 ft
< 800m
< 200 ft
Simboli :   Temporali  Nebbia  Neve Forte  Precipitazioni Forti  Vento > 20 kt
SIGMETs :   Varie  Temporali  Ghiacco  Turbolenza  Onda orograficha  Ceneri Vulcaniche






- Altitudine del aeroporto : 82 ft
- Codice IATA : AAR


EKAH - Aarhus Tirstrup

ULTIMO METAR :
  • 200350Z AUTO 25005KT 220V280 9999NDV OVC031/// 07/05 Q1019

METARs OBSOLETI :
  • 200320Z AUTO 23004KT 190V270 9999NDV OVC022/// 07/06 Q1019
  • 200250Z AUTO 25004KT 200V270 9999NDV OVC020/// 07/07 Q1018
  • 200220Z AUTO 27006KT 230V290 9999NDV OVC016/// 07/07 Q1018
  • 200150Z AUTO 25003KT 8000NDV OVC008/// 08/07 Q1017
  • 200120Z AUTO 26003KT 7000NDV OVC004/// 08/07 Q1017

TAF AMD TAF EKAH
Valido dal 20 a 00 ore il 21 a 00 ore UTC


200053Z 2000/2024 28005KT 9999 BKN004
BECMG 2000/2002 BKN040
BECMG 2016/2018 3000 RADZ BR BKN005
TEMPO 2018/2024 8000 -RADZ SCT005 BKN012
BECMG 2020/2022 12012KT



MetMap, La meteo Aeronautica in un colpo d'occhio ! - Copyright ORBIFLY Dicembre 2007 - Disclaimer

ORBIFLY MET'MAP TEAM :

Programmazione e sviluppo : Alexandra Zaïnal
Concezione e sviluppo : Baudouin d'Aumeries
Co-Programmazione e sviluppo : Marc-Olivier Méhu
Supporto tecnico e logistico : Manuel Goepfert
Aiuto per la traduzione : Arnaldo La Scala

Contatto : metmap@orbifly.com




FONTI E CREDITI :

   NOAA